KAND/AND METAR and TAF weather

Enter ICAO airport designator
Station Type Date Time Source
KAND METAR 2019/05/20 10:37 UTC NOAA

KAND 201037Z AUTO 00000KT 10SM BKN011 19/18 A3004 RMK AO2 T01940183


Station Type Date Time Source
KAND Decoded METAR 2019/05/20 10:37 UTC NOAA

ANDERSON COUNTY AIRPORT, SC, United States (KAND) 34-30N 82-43W 239M
May 20, 2019 - 06:37 AM EDT / 2019.05.20 1037 UTC
Wind: Calm:0
Visibility: 10 mile(s):0
Sky conditions: mostly cloudy
Temperature: 66.9 F (19.4 C)
Dew Point: 64.9 F (18.3 C)
Relative Humidity: 93%
Pressure (altimeter): 30.04 in. Hg (1017 hPa)
ob: KAND 201037Z AUTO 00000KT 10SM BKN011 19/18 A3004 RMK AO2 T01940183
cycle: 10

Station Type Date Time Source
KAND TAF 2019/05/20 06:34 UTC NOAA

TAF KAND 200532Z 2006/2106 18004KT P6SM SCT250
FM201200 20004KT P6SM SCT011
FM201500 23009KT P6SM FEW060 SCT250
FM210100 28004KT P6SM FEW250

Example: see airport list